sensor_id;sensor_type;location;lat;lon;timestamp;P1;durP1;ratioP1;P2;durP2;ratioP2
5060;SDS011;2549;52.128;21.068;2023-07-16T00:02:07;7.70;;;5.30;;
5060;SDS011;2549;52.128;21.068;2023-07-16T00:04:34;7.50;;;5.13;;
5060;SDS011;2549;52.128;21.068;2023-07-16T00:07:02;5.03;;;4.50;;
5060;SDS011;2549;52.128;21.068;2023-07-16T00:09:29;6.07;;;4.83;;
5060;SDS011;2549;52.128;21.068;2023-07-16T00:11:56;7.13;;;4.60;;
5060;SDS011;2549;52.128;21.068;2023-07-16T00:14:23;5.37;;;4.93;;
5060;SDS011;2549;52.128;21.068;2023-07-16T00:16:50;18.07;;;5.60;;
5060;SDS011;2549;52.128;21.068;2023-07-16T00:19:17;5.93;;;4.97;;
5060;SDS011;2549;52.128;21.068;2023-07-16T00:21:44;5.43;;;5.00;;
5060;SDS011;2549;52.128;21.068;2023-07-16T00:24:11;5.60;;;5.10;;
5060;SDS011;2549;52.128;21.068;2023-07-16T00:26:37;4.87;;;4.50;;
5060;SDS011;2549;52.128;21.068;2023-07-16T00:29:04;5.17;;;4.67;;
5060;SDS011;2549;52.128;21.068;2023-07-16T00:31:31;6.90;;;4.80;;
5060;SDS011;2549;52.128;21.068;2023-07-16T00:33:58;5.13;;;4.60;;
5060;SDS011;2549;52.128;21.068;2023-07-16T00:36:25;8.70;;;5.17;;
5060;SDS011;2549;52.128;21.068;2023-07-16T00:38:51;5.47;;;5.00;;
5060;SDS011;2549;52.128;21.068;2023-07-16T00:41:18;7.00;;;5.43;;
5060;SDS011;2549;52.128;21.068;2023-07-16T00:43:45;8.90;;;5.53;;
5060;SDS011;2549;52.128;21.068;2023-07-16T00:46:12;5.07;;;4.67;;
5060;SDS011;2549;52.128;21.068;2023-07-16T00:48:40;8.03;;;5.10;;
5060;SDS011;2549;52.128;21.068;2023-07-16T00:51:08;10.20;;;5.23;;
5060;SDS011;2549;52.128;21.068;2023-07-16T00:53:35;8.47;;;5.63;;
5060;SDS011;2549;52.128;21.068;2023-07-16T00:56:02;5.43;;;4.93;;
5060;SDS011;2549;52.128;21.068;2023-07-16T00:58:29;7.70;;;5.53;;
5060;SDS011;2549;52.128;21.068;2023-07-16T01:00:56;16.07;;;5.83;;
5060;SDS011;2549;52.128;21.068;2023-07-16T01:03:23;8.03;;;5.43;;
5060;SDS011;2549;52.128;21.068;2023-07-16T01:08:38;5.57;;;4.70;;
5060;SDS011;2549;52.128;21.068;2023-07-16T01:11:13;7.40;;;5.30;;
5060;SDS011;2549;52.128;21.068;2023-07-16T01:13:41;5.90;;;5.30;;
5060;SDS011;2549;52.128;21.068;2023-07-16T01:16:19;5.60;;;5.10;;
5060;SDS011;2549;52.128;21.068;2023-07-16T01:18:50;6.70;;;5.43;;
5060;SDS011;2549;52.128;21.068;2023-07-16T01:21:18;5.13;;;4.63;;
5060;SDS011;2549;52.128;21.068;2023-07-16T01:29:29;5.73;;;5.23;;
5060;SDS011;2549;52.128;21.068;2023-07-16T01:32:00;8.63;;;5.03;;
5060;SDS011;2549;52.128;21.068;2023-07-16T01:34:29;5.17;;;4.67;;
5060;SDS011;2549;52.128;21.068;2023-07-16T01:37:00;5.17;;;4.73;;
5060;SDS011;2549;52.128;21.068;2023-07-16T01:39:28;6.87;;;4.77;;
5060;SDS011;2549;52.128;21.068;2023-07-16T01:41:55;6.93;;;5.20;;
5060;SDS011;2549;52.128;21.068;2023-07-16T01:44:22;5.80;;;5.20;;
5060;SDS011;2549;52.128;21.068;2023-07-16T01:49:37;5.70;;;5.20;;
5060;SDS011;2549;52.128;21.068;2023-07-16T01:52:05;7.60;;;5.53;;
5060;SDS011;2549;52.128;21.068;2023-07-16T01:54:33;5.10;;;4.70;;
5060;SDS011;2549;52.128;21.068;2023-07-16T01:57:00;4.90;;;4.60;;
5060;SDS011;2549;52.128;21.068;2023-07-16T01:59:27;6.40;;;5.13;;
5060;SDS011;2549;52.128;21.068;2023-07-16T02:04:58;5.53;;;5.03;;
5060;SDS011;2549;52.128;21.068;2023-07-16T02:07:25;5.50;;;5.10;;
5060;SDS011;2549;52.128;21.068;2023-07-16T02:09:51;6.50;;;5.20;;
5060;SDS011;2549;52.128;21.068;2023-07-16T02:12:18;6.27;;;4.87;;
5060;SDS011;2549;52.128;21.068;2023-07-16T02:14:45;6.13;;;5.53;;
5060;SDS011;2549;52.128;21.068;2023-07-16T02:17:12;6.37;;;5.57;;
5060;SDS011;2549;52.128;21.068;2023-07-16T02:19:39;7.40;;;4.97;;
5060;SDS011;2549;52.128;21.068;2023-07-16T02:22:06;5.33;;;4.83;;
5060;SDS011;2549;52.128;21.068;2023-07-16T02:24:33;5.13;;;4.73;;
5060;SDS011;2549;52.128;21.068;2023-07-16T02:27:01;8.80;;;6.07;;
5060;SDS011;2549;52.128;21.068;2023-07-16T02:29:28;11.47;;;5.83;;
5060;SDS011;2549;52.128;21.068;2023-07-16T02:31:57;5.63;;;5.17;;
5060;SDS011;2549;52.128;21.068;2023-07-16T02:34:24;6.23;;;5.30;;
5060;SDS011;2549;52.128;21.068;2023-07-16T02:36:51;5.77;;;5.20;;
5060;SDS011;2549;52.128;21.068;2023-07-16T02:39:17;6.53;;;5.90;;
5060;SDS011;2549;52.128;21.068;2023-07-16T02:41:47;8.50;;;5.93;;
5060;SDS011;2549;52.128;21.068;2023-07-16T02:44:13;6.13;;;5.57;;
5060;SDS011;2549;52.128;21.068;2023-07-16T02:46:40;7.80;;;5.93;;
5060;SDS011;2549;52.128;21.068;2023-07-16T02:49:08;6.90;;;5.80;;
5060;SDS011;2549;52.128;21.068;2023-07-16T02:51:35;5.37;;;4.87;;
5060;SDS011;2549;52.128;21.068;2023-07-16T02:54:02;8.40;;;5.73;;
5060;SDS011;2549;52.128;21.068;2023-07-16T02:56:28;6.90;;;6.20;;
5060;SDS011;2549;52.128;21.068;2023-07-16T02:58:55;6.23;;;5.53;;
5060;SDS011;2549;52.128;21.068;2023-07-16T03:01:22;9.70;;;5.33;;
5060;SDS011;2549;52.128;21.068;2023-07-16T03:03:49;6.50;;;5.47;;
5060;SDS011;2549;52.128;21.068;2023-07-16T03:06:16;7.40;;;5.83;;
5060;SDS011;2549;52.128;21.068;2023-07-16T03:08:47;12.53;;;5.87;;
5060;SDS011;2549;52.128;21.068;2023-07-16T03:11:14;5.47;;;5.07;;
5060;SDS011;2549;52.128;21.068;2023-07-16T03:13:41;6.47;;;5.70;;
5060;SDS011;2549;52.128;21.068;2023-07-16T03:16:08;6.13;;;5.53;;
5060;SDS011;2549;52.128;21.068;2023-07-16T03:18:35;8.30;;;5.73;;
5060;SDS011;2549;52.128;21.068;2023-07-16T03:21:02;6.47;;;5.83;;
5060;SDS011;2549;52.128;21.068;2023-07-16T03:23:29;7.80;;;6.93;;
5060;SDS011;2549;52.128;21.068;2023-07-16T03:25:56;6.40;;;5.80;;
5060;SDS011;2549;52.128;21.068;2023-07-16T03:28:23;7.33;;;6.63;;
5060;SDS011;2549;52.128;21.068;2023-07-16T03:30:50;6.67;;;5.80;;
5060;SDS011;2549;52.128;21.068;2023-07-16T03:33:17;8.90;;;6.73;;
5060;SDS011;2549;52.128;21.068;2023-07-16T03:35:44;7.07;;;6.40;;
5060;SDS011;2549;52.128;21.068;2023-07-16T03:38:12;7.20;;;6.50;;
5060;SDS011;2549;52.128;21.068;2023-07-16T03:40:41;8.37;;;6.13;;
5060;SDS011;2549;52.128;21.068;2023-07-16T03:43:14;6.37;;;5.77;;
5060;SDS011;2549;52.128;21.068;2023-07-16T03:45:41;6.57;;;5.93;;
5060;SDS011;2549;52.128;21.068;2023-07-16T03:48:08;9.40;;;6.27;;
5060;SDS011;2549;52.128;21.068;2023-07-16T03:50:36;6.13;;;5.60;;
5060;SDS011;2549;52.128;21.068;2023-07-16T03:53:02;7.03;;;5.67;;
5060;SDS011;2549;52.128;21.068;2023-07-16T03:55:29;6.97;;;6.27;;
5060;SDS011;2549;52.128;21.068;2023-07-16T03:57:56;8.93;;;7.17;;
5060;SDS011;2549;52.128;21.068;2023-07-16T04:00:23;8.20;;;6.50;;
5060;SDS011;2549;52.128;21.068;2023-07-16T04:02:50;7.43;;;6.43;;
5060;SDS011;2549;52.128;21.068;2023-07-16T04:05:17;10.87;;;7.77;;
5060;SDS011;2549;52.128;21.068;2023-07-16T04:07:48;8.50;;;7.23;;
5060;SDS011;2549;52.128;21.068;2023-07-16T04:10:15;7.00;;;6.30;;
5060;SDS011;2549;52.128;21.068;2023-07-16T04:12:41;7.83;;;6.73;;
5060;SDS011;2549;52.128;21.068;2023-07-16T04:15:08;6.93;;;5.77;;
5060;SDS011;2549;52.128;21.068;2023-07-16T04:17:36;6.67;;;6.07;;
5060;SDS011;2549;52.128;21.068;2023-07-16T04:20:04;11.33;;;6.50;;
5060;SDS011;2549;52.128;21.068;2023-07-16T04:22:33;7.10;;;6.37;;
5060;SDS011;2549;52.128;21.068;2023-07-16T04:25:01;12.40;;;7.63;;
5060;SDS011;2549;52.128;21.068;2023-07-16T04:27:28;8.80;;;6.80;;
5060;SDS011;2549;52.128;21.068;2023-07-16T04:29:54;6.90;;;6.30;;
5060;SDS011;2549;52.128;21.068;2023-07-16T04:32:21;7.93;;;5.90;;
5060;SDS011;2549;52.128;21.068;2023-07-16T04:34:48;10.23;;;6.43;;
5060;SDS011;2549;52.128;21.068;2023-07-16T04:37:15;8.20;;;6.73;;
5060;SDS011;2549;52.128;21.068;2023-07-16T04:39:42;9.40;;;6.70;;
5060;SDS011;2549;52.128;21.068;2023-07-16T04:42:09;9.07;;;6.83;;
5060;SDS011;2549;52.128;21.068;2023-07-16T04:44:36;10.43;;;7.13;;
5060;SDS011;2549;52.128;21.068;2023-07-16T04:47:03;7.27;;;6.10;;
5060;SDS011;2549;52.128;21.068;2023-07-16T04:49:31;14.10;;;6.60;;
5060;SDS011;2549;52.128;21.068;2023-07-16T04:52:04;9.23;;;6.73;;
5060;SDS011;2549;52.128;21.068;2023-07-16T04:54:36;9.90;;;6.53;;
5060;SDS011;2549;52.128;21.068;2023-07-16T04:57:05;7.10;;;6.50;;
5060;SDS011;2549;52.128;21.068;2023-07-16T04:59:33;7.40;;;5.83;;
5060;SDS011;2549;52.128;21.068;2023-07-16T05:02:01;10.93;;;6.17;;
5060;SDS011;2549;52.128;21.068;2023-07-16T05:04:31;10.10;;;7.60;;
5060;SDS011;2549;52.128;21.068;2023-07-16T05:06:58;10.70;;;6.30;;
5060;SDS011;2549;52.128;21.068;2023-07-16T05:09:25;5.60;;;5.10;;
5060;SDS011;2549;52.128;21.068;2023-07-16T05:11:52;6.90;;;6.20;;
5060;SDS011;2549;52.128;21.068;2023-07-16T05:14:18;15.40;;;6.53;;
5060;SDS011;2549;52.128;21.068;2023-07-16T05:16:45;6.97;;;6.27;;
5060;SDS011;2549;52.128;21.068;2023-07-16T05:19:12;7.20;;;6.47;;
5060;SDS011;2549;52.128;21.068;2023-07-16T05:21:39;7.83;;;6.00;;
5060;SDS011;2549;52.128;21.068;2023-07-16T05:24:06;6.60;;;6.00;;
5060;SDS011;2549;52.128;21.068;2023-07-16T05:26:33;8.33;;;6.27;;
5060;SDS011;2549;52.128;21.068;2023-07-16T05:29:00;10.00;;;6.13;;
5060;SDS011;2549;52.128;21.068;2023-07-16T05:31:26;6.80;;;5.93;;
5060;SDS011;2549;52.128;21.068;2023-07-16T05:33:53;7.90;;;7.10;;
5060;SDS011;2549;52.128;21.068;2023-07-16T05:36:20;8.00;;;6.30;;
5060;SDS011;2549;52.128;21.068;2023-07-16T05:38:47;9.20;;;5.90;;
5060;SDS011;2549;52.128;21.068;2023-07-16T05:41:14;8.53;;;6.33;;
5060;SDS011;2549;52.128;21.068;2023-07-16T05:43:41;7.70;;;6.10;;
5060;SDS011;2549;52.128;21.068;2023-07-16T05:46:07;6.70;;;6.10;;
5060;SDS011;2549;52.128;21.068;2023-07-16T05:48:34;7.87;;;5.60;;
5060;SDS011;2549;52.128;21.068;2023-07-16T05:51:01;6.53;;;5.80;;
5060;SDS011;2549;52.128;21.068;2023-07-16T05:53:28;8.03;;;6.30;;
5060;SDS011;2549;52.128;21.068;2023-07-16T05:55:55;6.10;;;5.50;;
5060;SDS011;2549;52.128;21.068;2023-07-16T05:58:22;7.67;;;5.67;;
5060;SDS011;2549;52.128;21.068;2023-07-16T06:00:49;6.03;;;5.53;;
5060;SDS011;2549;52.128;21.068;2023-07-16T06:03:16;12.83;;;6.10;;
5060;SDS011;2549;52.128;21.068;2023-07-16T06:05:45;7.30;;;5.77;;
5060;SDS011;2549;52.128;21.068;2023-07-16T06:08:12;15.40;;;6.67;;
5060;SDS011;2549;52.128;21.068;2023-07-16T06:10:38;7.57;;;6.30;;
5060;SDS011;2549;52.128;21.068;2023-07-16T06:13:05;8.77;;;6.10;;
5060;SDS011;2549;52.128;21.068;2023-07-16T06:15:32;11.63;;;5.87;;
5060;SDS011;2549;52.128;21.068;2023-07-16T06:17:59;14.77;;;6.80;;
5060;SDS011;2549;52.128;21.068;2023-07-16T06:20:26;7.87;;;7.07;;
5060;SDS011;2549;52.128;21.068;2023-07-16T06:22:53;7.03;;;6.40;;
5060;SDS011;2549;52.128;21.068;2023-07-16T06:25:19;7.77;;;6.97;;
5060;SDS011;2549;52.128;21.068;2023-07-16T06:27:47;10.50;;;6.30;;
5060;SDS011;2549;52.128;21.068;2023-07-16T06:30:13;6.07;;;5.53;;
5060;SDS011;2549;52.128;21.068;2023-07-16T06:32:40;7.53;;;5.97;;
5060;SDS011;2549;52.128;21.068;2023-07-16T06:35:07;8.10;;;6.43;;
5060;SDS011;2549;52.128;21.068;2023-07-16T06:37:35;8.70;;;5.17;;
5060;SDS011;2549;52.128;21.068;2023-07-16T06:40:02;8.30;;;6.40;;
5060;SDS011;2549;52.128;21.068;2023-07-16T06:42:29;9.23;;;5.23;;
5060;SDS011;2549;52.128;21.068;2023-07-16T06:44:56;5.40;;;5.00;;
5060;SDS011;2549;52.128;21.068;2023-07-16T06:47:23;7.47;;;5.47;;
5060;SDS011;2549;52.128;21.068;2023-07-16T06:49:50;6.73;;;6.07;;
5060;SDS011;2549;52.128;21.068;2023-07-16T06:52:20;6.60;;;5.50;;
5060;SDS011;2549;52.128;21.068;2023-07-16T06:54:48;5.63;;;4.80;;
5060;SDS011;2549;52.128;21.068;2023-07-16T06:57:15;6.20;;;5.60;;
5060;SDS011;2549;52.128;21.068;2023-07-16T06:59:42;6.13;;;5.50;;
5060;SDS011;2549;52.128;21.068;2023-07-16T07:02:09;6.60;;;4.70;;
5060;SDS011;2549;52.128;21.068;2023-07-16T07:04:36;8.77;;;5.47;;
5060;SDS011;2549;52.128;21.068;2023-07-16T07:07:02;7.77;;;5.53;;
5060;SDS011;2549;52.128;21.068;2023-07-16T07:09:29;5.93;;;5.43;;
5060;SDS011;2549;52.128;21.068;2023-07-16T07:11:56;10.10;;;5.10;;
5060;SDS011;2549;52.128;21.068;2023-07-16T07:14:23;8.90;;;5.67;;
5060;SDS011;2549;52.128;21.068;2023-07-16T07:16:50;6.03;;;4.37;;
5060;SDS011;2549;52.128;21.068;2023-07-16T07:19:17;5.80;;;5.30;;
5060;SDS011;2549;52.128;21.068;2023-07-16T07:21:44;5.33;;;4.83;;
5060;SDS011;2549;52.128;21.068;2023-07-16T07:24:11;7.07;;;5.40;;
5060;SDS011;2549;52.128;21.068;2023-07-16T07:26:39;6.23;;;4.63;;
5060;SDS011;2549;52.128;21.068;2023-07-16T07:29:05;6.10;;;5.50;;
5060;SDS011;2549;52.128;21.068;2023-07-16T07:31:32;5.90;;;5.40;;
5060;SDS011;2549;52.128;21.068;2023-07-16T07:33:59;5.60;;;5.10;;
5060;SDS011;2549;52.128;21.068;2023-07-16T07:36:26;8.13;;;5.30;;
5060;SDS011;2549;52.128;21.068;2023-07-16T07:38:53;5.80;;;5.40;;
5060;SDS011;2549;52.128;21.068;2023-07-16T07:41:20;5.47;;;4.80;;
5060;SDS011;2549;52.128;21.068;2023-07-16T07:43:47;5.93;;;5.33;;
5060;SDS011;2549;52.128;21.068;2023-07-16T07:46:14;6.37;;;5.17;;
5060;SDS011;2549;52.128;21.068;2023-07-16T07:48:41;6.20;;;4.43;;
5060;SDS011;2549;52.128;21.068;2023-07-16T07:51:08;6.93;;;4.97;;
5060;SDS011;2549;52.128;21.068;2023-07-16T07:53:34;6.40;;;4.70;;
5060;SDS011;2549;52.128;21.068;2023-07-16T07:56:01;9.57;;;5.47;;
5060;SDS011;2549;52.128;21.068;2023-07-16T07:58:28;5.97;;;5.47;;
5060;SDS011;2549;52.128;21.068;2023-07-16T08:00:55;5.90;;;4.73;;
5060;SDS011;2549;52.128;21.068;2023-07-16T08:03:22;9.63;;;4.90;;
5060;SDS011;2549;52.128;21.068;2023-07-16T08:05:49;102.00;;;11.43;;
5060;SDS011;2549;52.128;21.068;2023-07-16T08:08:16;5.57;;;4.80;;
5060;SDS011;2549;52.128;21.068;2023-07-16T08:10:43;4.43;;;4.03;;
5060;SDS011;2549;52.128;21.068;2023-07-16T08:13:12;6.30;;;4.00;;
5060;SDS011;2549;52.128;21.068;2023-07-16T08:15:39;8.20;;;5.13;;
5060;SDS011;2549;52.128;21.068;2023-07-16T08:18:05;7.07;;;4.70;;
5060;SDS011;2549;52.128;21.068;2023-07-16T08:20:32;5.87;;;4.50;;
5060;SDS011;2549;52.128;21.068;2023-07-16T08:23:01;4.30;;;3.90;;
5060;SDS011;2549;52.128;21.068;2023-07-16T08:25:28;4.17;;;3.77;;
5060;SDS011;2549;52.128;21.068;2023-07-16T08:27:55;3.33;;;3.20;;
5060;SDS011;2549;52.128;21.068;2023-07-16T08:30:22;4.37;;;3.97;;
5060;SDS011;2549;52.128;21.068;2023-07-16T08:32:49;5.67;;;3.83;;
5060;SDS011;2549;52.128;21.068;2023-07-16T08:35:16;4.50;;;3.63;;
5060;SDS011;2549;52.128;21.068;2023-07-16T08:37:43;4.37;;;3.83;;
5060;SDS011;2549;52.128;21.068;2023-07-16T08:40:11;4.20;;;3.80;;
5060;SDS011;2549;52.128;21.068;2023-07-16T08:42:39;4.17;;;3.43;;
5060;SDS011;2549;52.128;21.068;2023-07-16T08:45:06;5.50;;;3.93;;
5060;SDS011;2549;52.128;21.068;2023-07-16T08:47:36;5.57;;;4.20;;
5060;SDS011;2549;52.128;21.068;2023-07-16T08:50:03;3.97;;;3.77;;
5060;SDS011;2549;52.128;21.068;2023-07-16T08:52:30;4.20;;;3.83;;
5060;SDS011;2549;52.128;21.068;2023-07-16T08:54:57;3.73;;;3.40;;
5060;SDS011;2549;52.128;21.068;2023-07-16T08:57:24;5.03;;;4.13;;
5060;SDS011;2549;52.128;21.068;2023-07-16T08:59:52;9.60;;;4.20;;
5060;SDS011;2549;52.128;21.068;2023-07-16T09:02:21;3.30;;;3.10;;
5060;SDS011;2549;52.128;21.068;2023-07-16T09:04:49;8.00;;;3.50;;
5060;SDS011;2549;52.128;21.068;2023-07-16T09:07:21;8.17;;;3.40;;
5060;SDS011;2549;52.128;21.068;2023-07-16T09:09:55;3.40;;;3.13;;
5060;SDS011;2549;52.128;21.068;2023-07-16T09:12:24;10.20;;;3.47;;
5060;SDS011;2549;52.128;21.068;2023-07-16T09:14:52;5.57;;;3.07;;
5060;SDS011;2549;52.128;21.068;2023-07-16T09:17:23;3.87;;;3.50;;
5060;SDS011;2549;52.128;21.068;2023-07-16T09:19:51;6.40;;;3.53;;
5060;SDS011;2549;52.128;21.068;2023-07-16T09:22:19;4.03;;;3.70;;
5060;SDS011;2549;52.128;21.068;2023-07-16T09:24:46;6.23;;;3.33;;
5060;SDS011;2549;52.128;21.068;2023-07-16T09:27:14;4.53;;;4.10;;
5060;SDS011;2549;52.128;21.068;2023-07-16T09:29:41;3.27;;;3.07;;
5060;SDS011;2549;52.128;21.068;2023-07-16T09:32:08;4.33;;;3.50;;
5060;SDS011;2549;52.128;21.068;2023-07-16T09:34:35;5.90;;;3.97;;
5060;SDS011;2549;52.128;21.068;2023-07-16T09:37:04;4.37;;;4.00;;
5060;SDS011;2549;52.128;21.068;2023-07-16T09:39:32;6.70;;;4.43;;
5060;SDS011;2549;52.128;21.068;2023-07-16T09:42:00;4.63;;;3.40;;
5060;SDS011;2549;52.128;21.068;2023-07-16T09:44:29;4.07;;;3.77;;
5060;SDS011;2549;52.128;21.068;2023-07-16T09:46:57;19.93;;;4.03;;
5060;SDS011;2549;52.128;21.068;2023-07-16T09:49:27;6.40;;;4.17;;
5060;SDS011;2549;52.128;21.068;2023-07-16T09:51:56;7.50;;;3.60;;
5060;SDS011;2549;52.128;21.068;2023-07-16T09:54:24;4.30;;;3.90;;
5060;SDS011;2549;52.128;21.068;2023-07-16T09:56:56;3.63;;;3.43;;
5060;SDS011;2549;52.128;21.068;2023-07-16T09:59:27;5.57;;;4.23;;
5060;SDS011;2549;52.128;21.068;2023-07-16T10:01:56;4.03;;;3.70;;
5060;SDS011;2549;52.128;21.068;2023-07-16T10:04:24;4.77;;;3.63;;
5060;SDS011;2549;52.128;21.068;2023-07-16T10:06:52;4.10;;;3.73;;
5060;SDS011;2549;52.128;21.068;2023-07-16T10:09:37;3.70;;;3.40;;
5060;SDS011;2549;52.128;21.068;2023-07-16T10:14:43;4.53;;;3.73;;
5060;SDS011;2549;52.128;21.068;2023-07-16T10:19:49;8.23;;;4.10;;
5060;SDS011;2549;52.128;21.068;2023-07-16T10:25:07;5.83;;;3.97;;
5060;SDS011;2549;52.128;21.068;2023-07-16T10:27:44;5.03;;;4.40;;
5060;SDS011;2549;52.128;21.068;2023-07-16T10:30:12;4.50;;;4.10;;
5060;SDS011;2549;52.128;21.068;2023-07-16T10:32:40;4.00;;;3.70;;
5060;SDS011;2549;52.128;21.068;2023-07-16T10:35:07;4.60;;;4.00;;
5060;SDS011;2549;52.128;21.068;2023-07-16T10:37:35;5.40;;;4.20;;
5060;SDS011;2549;52.128;21.068;2023-07-16T10:40:03;5.47;;;4.03;;
5060;SDS011;2549;52.128;21.068;2023-07-16T10:42:31;4.00;;;3.30;;
5060;SDS011;2549;52.128;21.068;2023-07-16T10:44:59;4.27;;;3.97;;
5060;SDS011;2549;52.128;21.068;2023-07-16T10:47:32;6.90;;;4.10;;
5060;SDS011;2549;52.128;21.068;2023-07-16T10:50:02;6.33;;;4.50;;
5060;SDS011;2549;52.128;21.068;2023-07-16T10:52:30;6.90;;;4.37;;
5060;SDS011;2549;52.128;21.068;2023-07-16T10:54:57;5.23;;;4.60;;
5060;SDS011;2549;52.128;21.068;2023-07-16T10:57:25;5.37;;;4.90;;
5060;SDS011;2549;52.128;21.068;2023-07-16T10:59:53;4.80;;;4.40;;
5060;SDS011;2549;52.128;21.068;2023-07-16T11:02:22;5.23;;;4.70;;
5060;SDS011;2549;52.128;21.068;2023-07-16T11:04:50;6.80;;;5.10;;
5060;SDS011;2549;52.128;21.068;2023-07-16T11:07:21;7.40;;;4.60;;
5060;SDS011;2549;52.128;21.068;2023-07-16T11:12:23;6.03;;;5.50;;
5060;SDS011;2549;52.128;21.068;2023-07-16T11:14:50;5.10;;;4.60;;
5060;SDS011;2549;52.128;21.068;2023-07-16T11:17:20;7.53;;;5.40;;
5060;SDS011;2549;52.128;21.068;2023-07-16T11:19:49;4.77;;;4.30;;
5060;SDS011;2549;52.128;21.068;2023-07-16T11:22:18;6.30;;;4.90;;
5060;SDS011;2549;52.128;21.068;2023-07-16T11:24:49;6.13;;;4.70;;
5060;SDS011;2549;52.128;21.068;2023-07-16T11:27:20;7.90;;;5.80;;
5060;SDS011;2549;52.128;21.068;2023-07-16T11:29:50;11.33;;;4.60;;
5060;SDS011;2549;52.128;21.068;2023-07-16T11:32:37;5.67;;;5.27;;
5060;SDS011;2549;52.128;21.068;2023-07-16T11:35:10;7.20;;;5.20;;
5060;SDS011;2549;52.128;21.068;2023-07-16T11:37:42;23.27;;;5.53;;
5060;SDS011;2549;52.128;21.068;2023-07-16T11:40:10;5.43;;;4.80;;
5060;SDS011;2549;52.128;21.068;2023-07-16T11:42:41;6.83;;;5.13;;
5060;SDS011;2549;52.128;21.068;2023-07-16T11:45:46;7.00;;;4.50;;
5060;SDS011;2549;52.128;21.068;2023-07-16T11:48:02;5.17;;;4.67;;
5060;SDS011;2549;52.128;21.068;2023-07-16T11:50:30;5.57;;;4.90;;
5060;SDS011;2549;52.128;21.068;2023-07-16T11:53:01;6.17;;;5.60;;
5060;SDS011;2549;52.128;21.068;2023-07-16T11:55:28;5.77;;;5.10;;
5060;SDS011;2549;52.128;21.068;2023-07-16T11:57:55;6.83;;;5.40;;
5060;SDS011;2549;52.128;21.068;2023-07-16T12:00:26;4.93;;;4.63;;
5060;SDS011;2549;52.128;21.068;2023-07-16T12:02:53;5.30;;;4.80;;
5060;SDS011;2549;52.128;21.068;2023-07-16T12:05:20;10.20;;;4.73;;
5060;SDS011;2549;52.128;21.068;2023-07-16T12:08:10;6.73;;;4.83;;
5060;SDS011;2549;52.128;21.068;2023-07-16T12:10:40;10.90;;;4.80;;
5060;SDS011;2549;52.128;21.068;2023-07-16T12:13:07;5.57;;;5.17;;
5060;SDS011;2549;52.128;21.068;2023-07-16T12:15:34;6.10;;;5.50;;
5060;SDS011;2549;52.128;21.068;2023-07-16T12:18:01;5.17;;;4.77;;
5060;SDS011;2549;52.128;21.068;2023-07-16T12:20:29;5.07;;;4.63;;
5060;SDS011;2549;52.128;21.068;2023-07-16T12:22:56;8.90;;;4.53;;
5060;SDS011;2549;52.128;21.068;2023-07-16T12:25:23;207.33;;;17.43;;
5060;SDS011;2549;52.128;21.068;2023-07-16T12:27:50;5.53;;;4.63;;
5060;SDS011;2549;52.128;21.068;2023-07-16T12:30:21;47.63;;;6.03;;
5060;SDS011;2549;52.128;21.068;2023-07-16T12:32:48;5.13;;;4.73;;
5060;SDS011;2549;52.128;21.068;2023-07-16T12:35:15;9.37;;;4.53;;
5060;SDS011;2549;52.128;21.068;2023-07-16T12:37:42;6.80;;;4.00;;
5060;SDS011;2549;52.128;21.068;2023-07-16T12:40:09;5.70;;;4.10;;
5060;SDS011;2549;52.128;21.068;2023-07-16T12:42:37;4.67;;;4.27;;
5060;SDS011;2549;52.128;21.068;2023-07-16T12:45:04;4.43;;;4.03;;
5060;SDS011;2549;52.128;21.068;2023-07-16T12:47:31;4.63;;;4.27;;
5060;SDS011;2549;52.128;21.068;2023-07-16T12:49:58;7.67;;;5.07;;
5060;SDS011;2549;52.128;21.068;2023-07-16T12:52:25;5.30;;;4.80;;
5060;SDS011;2549;52.128;21.068;2023-07-16T12:54:52;4.97;;;4.57;;
5060;SDS011;2549;52.128;21.068;2023-07-16T12:57:22;5.10;;;3.90;;
5060;SDS011;2549;52.128;21.068;2023-07-16T12:59:49;4.63;;;4.30;;
5060;SDS011;2549;52.128;21.068;2023-07-16T13:02:16;5.27;;;4.13;;
5060;SDS011;2549;52.128;21.068;2023-07-16T13:04:43;6.57;;;3.87;;
5060;SDS011;2549;52.128;21.068;2023-07-16T13:07:09;4.50;;;4.10;;
5060;SDS011;2549;52.128;21.068;2023-07-16T13:09:36;7.50;;;3.40;;
5060;SDS011;2549;52.128;21.068;2023-07-16T13:12:06;4.33;;;3.93;;
5060;SDS011;2549;52.128;21.068;2023-07-16T13:14:33;8.17;;;3.93;;
5060;SDS011;2549;52.128;21.068;2023-07-16T13:17:00;3.63;;;3.30;;
5060;SDS011;2549;52.128;21.068;2023-07-16T13:19:28;10.60;;;3.73;;
5060;SDS011;2549;52.128;21.068;2023-07-16T13:21:54;3.20;;;3.00;;
5060;SDS011;2549;52.128;21.068;2023-07-16T13:24:21;4.57;;;3.33;;
5060;SDS011;2549;52.128;21.068;2023-07-16T13:26:48;3.90;;;3.10;;
5060;SDS011;2549;52.128;21.068;2023-07-16T13:29:15;3.47;;;2.80;;
5060;SDS011;2549;52.128;21.068;2023-07-16T13:31:42;5.40;;;2.87;;
5060;SDS011;2549;52.128;21.068;2023-07-16T13:34:09;6.07;;;3.20;;
5060;SDS011;2549;52.128;21.068;2023-07-16T13:36:36;10.20;;;3.60;;
5060;SDS011;2549;52.128;21.068;2023-07-16T13:39:02;3.40;;;3.10;;
5060;SDS011;2549;52.128;21.068;2023-07-16T13:41:31;3.17;;;2.93;;
5060;SDS011;2549;52.128;21.068;2023-07-16T13:43:58;4.10;;;2.40;;
5060;SDS011;2549;52.128;21.068;2023-07-16T13:46:25;3.30;;;3.10;;
5060;SDS011;2549;52.128;21.068;2023-07-16T13:48:52;5.70;;;2.70;;
5060;SDS011;2549;52.128;21.068;2023-07-16T13:51:25;2.47;;;2.37;;
5060;SDS011;2549;52.128;21.068;2023-07-16T13:53:52;4.40;;;2.90;;
5060;SDS011;2549;52.128;21.068;2023-07-16T13:56:19;3.00;;;2.70;;
5060;SDS011;2549;52.128;21.068;2023-07-16T13:58:46;3.57;;;2.40;;
5060;SDS011;2549;52.128;21.068;2023-07-16T14:01:14;13.70;;;2.30;;
5060;SDS011;2549;52.128;21.068;2023-07-16T14:03:41;2.70;;;2.57;;
5060;SDS011;2549;52.128;21.068;2023-07-16T14:06:08;3.17;;;2.97;;
5060;SDS011;2549;52.128;21.068;2023-07-16T14:08:35;4.70;;;2.67;;
5060;SDS011;2549;52.128;21.068;2023-07-16T14:11:02;2.97;;;2.70;;
5060;SDS011;2549;52.128;21.068;2023-07-16T14:13:29;2.40;;;2.30;;
5060;SDS011;2549;52.128;21.068;2023-07-16T14:15:56;2.90;;;2.70;;
5060;SDS011;2549;52.128;21.068;2023-07-16T14:18:23;3.30;;;2.50;;
5060;SDS011;2549;52.128;21.068;2023-07-16T14:20:50;3.63;;;2.80;;
5060;SDS011;2549;52.128;21.068;2023-07-16T14:23:17;10.80;;;2.80;;
5060;SDS011;2549;52.128;21.068;2023-07-16T14:25:44;4.30;;;2.90;;
5060;SDS011;2549;52.128;21.068;2023-07-16T14:28:11;2.90;;;2.70;;
5060;SDS011;2549;52.128;21.068;2023-07-16T14:30:37;2.63;;;2.43;;
5060;SDS011;2549;52.128;21.068;2023-07-16T14:33:04;7.43;;;2.37;;
5060;SDS011;2549;52.128;21.068;2023-07-16T14:35:32;2.40;;;2.30;;
5060;SDS011;2549;52.128;21.068;2023-07-16T14:38:03;4.50;;;2.90;;
5060;SDS011;2549;52.128;21.068;2023-07-16T14:40:30;3.03;;;2.80;;
5060;SDS011;2549;52.128;21.068;2023-07-16T14:42:57;4.60;;;2.80;;
5060;SDS011;2549;52.128;21.068;2023-07-16T14:45:25;3.70;;;3.00;;
5060;SDS011;2549;52.128;21.068;2023-07-16T14:47:52;4.33;;;2.83;;
5060;SDS011;2549;52.128;21.068;2023-07-16T14:50:19;2.60;;;2.50;;
5060;SDS011;2549;52.128;21.068;2023-07-16T14:52:46;2.87;;;2.63;;
5060;SDS011;2549;52.128;21.068;2023-07-16T14:55:13;5.03;;;3.00;;
5060;SDS011;2549;52.128;21.068;2023-07-16T14:57:41;3.37;;;2.47;;
5060;SDS011;2549;52.128;21.068;2023-07-16T15:00:08;7.50;;;2.83;;
5060;SDS011;2549;52.128;21.068;2023-07-16T15:02:38;2.20;;;2.10;;
5060;SDS011;2549;52.128;21.068;2023-07-16T15:05:05;4.10;;;2.30;;
5060;SDS011;2549;52.128;21.068;2023-07-16T15:07:33;2.37;;;2.00;;
5060;SDS011;2549;52.128;21.068;2023-07-16T15:10:01;3.40;;;3.20;;
5060;SDS011;2549;52.128;21.068;2023-07-16T15:12:29;2.87;;;2.53;;
5060;SDS011;2549;52.128;21.068;2023-07-16T15:14:57;3.07;;;2.20;;
5060;SDS011;2549;52.128;21.068;2023-07-16T15:17:24;1.80;;;1.70;;
5060;SDS011;2549;52.128;21.068;2023-07-16T15:19:51;2.40;;;2.10;;
5060;SDS011;2549;52.128;21.068;2023-07-16T15:22:18;2.40;;;2.20;;
5060;SDS011;2549;52.128;21.068;2023-07-16T15:24:47;2.17;;;1.97;;
5060;SDS011;2549;52.128;21.068;2023-07-16T15:27:15;1.80;;;1.70;;
5060;SDS011;2549;52.128;21.068;2023-07-16T15:29:42;2.03;;;1.93;;